Time;durP1;ratioP1;P1;durP2;ratioP2;P2;SDS_P1;SDS_P2;PMS_P1;PMS_P2;Temp;Humidity;BMP_temperature;BMP_pressure;BME280_temperature;BME280_humidity;BME280_pressure;Samples;Min_cycle;Max_cycle;Signal;HPM_P1;HPM_P2
2023/11/21 00:01:17;;;;;;;7.22;3.53;;;10.90;99.90;;;;;;5077121;28;20041;-70
2023/11/21 00:03:44;;;;;;;5.68;3.50;;;10.90;99.90;;;;;;5077501;28;20040;-71
2023/11/21 00:06:11;;;;;;;8.18;3.95;;;10.90;99.90;;;;;;5077417;28;20535;-71
2023/11/21 00:08:38;;;;;;;4.10;3.45;;;10.90;99.90;;;;;;5077345;28;20489;-72
2023/11/21 00:11:08;;;;;;;5.20;3.67;;;10.90;99.90;;;;;;5075776;28;20498;-71
2023/11/21 00:13:35;;;;;;;5.53;3.92;;;10.90;99.90;;;;;;5076023;28;20093;-71
2023/11/21 00:16:02;;;;;;;6.20;3.75;;;10.90;99.90;;;;;;5058726;28;20481;-72
2023/11/21 00:18:29;;;;;;;5.97;3.55;;;10.90;99.90;;;;;;5076691;28;20082;-71
2023/11/21 00:20:58;;;;;;;5.53;3.83;;;10.90;99.90;;;;;;5076605;28;20044;-72
2023/11/21 00:23:26;;;;;;;6.13;3.40;;;10.90;99.90;;;;;;5075669;28;20086;-72
2023/11/21 00:25:53;;;;;;;5.80;3.35;;;10.90;99.90;;;;;;5075848;28;20037;-71
2023/11/21 00:28:19;;;;;;;5.80;3.83;;;10.80;99.90;;;;;;5076572;28;20051;-71
2023/11/21 00:30:47;;;;;;;4.32;3.72;;;10.90;99.90;;;;;;5075669;28;20037;-73
2023/11/21 00:33:14;;;;;;;5.40;3.55;;;10.80;99.90;;;;;;5076516;28;20520;-71
2023/11/21 00:35:41;;;;;;;5.50;3.95;;;10.80;99.90;;;;;;5058611;28;20405;-71
2023/11/21 00:38:08;;;;;;;6.63;3.72;;;10.80;99.90;;;;;;5076328;28;20068;-72
2023/11/21 00:40:35;;;;;;;8.25;3.83;;;10.80;99.90;;;;;;5076962;28;20045;-72
2023/11/21 00:43:02;;;;;;;5.28;4.00;;;10.80;99.90;;;;;;5074996;28;20049;-73
2023/11/21 00:45:32;;;;;;;5.50;4.00;;;10.90;99.90;;;;;;5075238;28;20544;-73
2023/11/21 00:47:59;;;;;;;5.68;4.70;;;10.90;99.90;;;;;;5076507;28;20049;-71
2023/11/21 00:50:27;;;;;;;4.93;4.35;;;10.90;99.90;;;;;;5075123;28;20048;-72
2023/11/21 00:52:55;;;;;;;5.60;4.38;;;10.90;99.90;;;;;;5076261;28;20043;-73
2023/11/21 00:55:22;;;;;;;7.43;5.07;;;10.90;99.90;;;;;;5076590;28;20045;-73
2023/11/21 00:57:50;;;;;;;6.60;4.40;;;10.90;99.90;;;;;;5074353;28;20106;-73
2023/11/21 01:00:17;;;;;;;6.18;4.82;;;10.90;99.90;;;;;;5075026;28;20051;-72
2023/11/21 01:02:44;;;;;;;6.97;5.03;;;10.80;99.90;;;;;;5074438;28;20131;-70
2023/11/21 01:05:12;;;;;;;5.50;4.82;;;10.90;99.90;;;;;;5074918;28;20041;-71
2023/11/21 01:07:39;;;;;;;6.80;5.20;;;10.80;99.90;;;;;;5076200;28;20040;-72
2023/11/21 01:10:07;;;;;;;7.43;4.82;;;10.80;99.90;;;;;;5074609;28;20037;-73
2023/11/21 01:12:35;;;;;;;6.90;4.97;;;10.80;99.90;;;;;;5075457;28;20078;-71
2023/11/21 01:15:02;;;;;;;6.55;5.32;;;10.90;99.90;;;;;;5075855;28;20041;-72
2023/11/21 01:17:29;;;;;;;6.20;4.93;;;10.90;99.90;;;;;;5074342;28;20442;-71
2023/11/21 01:19:57;;;;;;;6.28;4.90;;;10.90;99.90;;;;;;5075658;28;20048;-72
2023/11/21 01:22:26;;;;;;;5.72;4.88;;;10.90;99.90;;;;;;5074061;28;20086;-71
2023/11/21 01:24:53;;;;;;;5.65;4.53;;;10.90;99.90;;;;;;5074470;28;20382;-72
2023/11/21 01:27:19;;;;;;;7.60;5.53;;;10.90;99.90;;;;;;5075688;28;20516;-72
2023/11/21 01:29:46;;;;;;;5.70;5.20;;;11.00;99.90;;;;;;5074072;28;20068;-72
2023/11/21 01:32:13;;;;;;;5.72;5.13;;;11.00;99.90;;;;;;5057482;28;20094;-73
2023/11/21 01:34:40;;;;;;;6.00;5.00;;;11.00;99.90;;;;;;5072781;28;20599;-73
2023/11/21 01:37:07;;;;;;;7.43;4.78;;;11.00;99.90;;;;;;5080023;28;20036;-72
2023/11/21 01:39:34;;;;;;;5.63;4.30;;;10.90;99.90;;;;;;5095479;28;20406;-72
2023/11/21 01:42:01;;;;;;;5.93;4.43;;;10.90;99.90;;;;;;5095138;28;20040;-73
2023/11/21 01:44:27;;;;;;;5.75;4.75;;;10.90;99.90;;;;;;5095253;28;20084;-72
2023/11/21 01:46:54;;;;;;;5.90;4.20;;;10.90;99.90;;;;;;5094302;28;20052;-72
2023/11/21 01:49:22;;;;;;;4.25;3.75;;;10.90;99.90;;;;;;5093619;28;20420;-72
2023/11/21 01:51:49;;;;;;;3.58;3.10;;;10.90;99.90;;;;;;5094999;28;20050;-72
2023/11/21 01:54:17;;;;;;;3.88;3.28;;;10.90;99.90;;;;;;5093794;28;20036;-73
2023/11/21 01:56:44;;;;;;;3.38;2.97;;;10.80;99.90;;;;;;5095266;28;20127;-73
2023/11/21 01:59:11;;;;;;;3.28;2.97;;;10.90;99.90;;;;;;5094628;28;20036;-73
2023/11/21 02:01:38;;;;;;;3.00;2.53;;;10.90;99.90;;;;;;5094848;28;20036;-72
2023/11/21 02:04:08;;;;;;;3.15;2.60;;;10.90;99.90;;;;;;5093544;28;20044;-72
2023/11/21 02:06:35;;;;;;;3.78;2.63;;;10.90;99.90;;;;;;5094678;28;20043;-71
2023/11/21 02:09:01;;;;;;;3.10;2.30;;;10.90;99.90;;;;;;5093756;28;20052;-72
2023/11/21 02:11:28;;;;;;;2.83;2.10;;;10.90;99.90;;;;;;5094621;28;20082;-71
2023/11/21 02:13:55;;;;;;;2.67;2.00;;;10.90;99.90;;;;;;5093848;28;20048;-72
2023/11/21 02:16:22;;;;;;;3.72;1.95;;;10.90;99.90;;;;;;5094433;28;20093;-72
2023/11/21 02:18:49;;;;;;;2.67;1.70;;;10.90;99.90;;;;;;5093212;28;20389;-72
2023/11/21 02:21:16;;;;;;;2.88;1.35;;;10.90;99.90;;;;;;5093034;28;20036;-72
2023/11/21 02:23:44;;;;;;;2.35;1.60;;;10.90;99.90;;;;;;5094650;28;20047;-71
2023/11/21 02:26:11;;;;;;;4.70;1.40;;;10.90;99.90;;;;;;5094194;28;20040;-70
2023/11/21 02:28:38;;;;;;;2.67;1.30;;;11.00;99.90;;;;;;5075918;28;20044;-70
2023/11/21 02:31:05;;;;;;;1.80;1.25;;;11.00;99.90;;;;;;5093324;28;20461;-71
2023/11/21 02:33:35;;;;;;;2.22;1.42;;;11.00;99.90;;;;;;5092803;28;20082;-71
2023/11/21 02:36:02;;;;;;;2.75;1.48;;;10.90;99.90;;;;;;5092847;28;20139;-71
2023/11/21 02:38:29;;;;;;;2.10;1.20;;;11.00;99.90;;;;;;5092756;28;20528;-71
2023/11/21 02:40:55;;;;;;;1.80;1.20;;;11.00;99.90;;;;;;5094536;28;20046;-71
2023/11/21 02:43:22;;;;;;;2.10;1.60;;;11.00;99.90;;;;;;5092397;28;20465;-71
2023/11/21 02:45:49;;;;;;;2.95;1.60;;;11.00;99.90;;;;;;5093032;28;20044;-71
2023/11/21 02:48:16;;;;;;;2.85;1.67;;;11.00;99.90;;;;;;5093575;28;20040;-71
2023/11/21 02:50:43;;;;;;;2.72;1.30;;;11.00;99.90;;;;;;5093727;28;20058;-72
2023/11/21 02:53:10;;;;;;;2.70;1.70;;;11.00;99.90;;;;;;5093919;28;20058;-71
2023/11/21 02:55:37;;;;;;;4.53;1.90;;;11.00;99.90;;;;;;5094027;28;20039;-71
2023/11/21 02:58:04;;;;;;;3.63;2.00;;;11.00;99.90;;;;;;5093921;28;20043;-71
2023/11/21 03:00:30;;;;;;;3.65;2.55;;;11.00;99.90;;;;;;5093919;28;20046;-71
2023/11/21 03:02:58;;;;;;;4.45;2.65;;;11.00;99.90;;;;;;5094141;28;20035;-71
2023/11/21 03:05:26;;;;;;;4.63;3.00;;;11.00;99.90;;;;;;5091988;28;20048;-71
2023/11/21 03:07:52;;;;;;;3.90;2.60;;;10.90;99.90;;;;;;5092539;28;20052;-72
2023/11/21 03:10:19;;;;;;;4.28;3.35;;;10.90;99.90;;;;;;5093984;28;20039;-72
2023/11/21 03:12:46;;;;;;;4.07;3.35;;;10.90;99.90;;;;;;5093635;28;20119;-71
2023/11/21 03:15:13;;;;;;;3.55;3.22;;;10.80;99.90;;;;;;5093853;28;20048;-71
2023/11/21 03:17:39;;;;;;;5.18;3.72;;;10.80;99.90;;;;;;5093689;28;20036;-70
2023/11/21 03:20:10;;;;;;;4.60;3.50;;;10.80;99.90;;;;;;5091882;28;20048;-71
2023/11/21 03:22:38;;;;;;;4.25;3.83;;;10.70;99.90;;;;;;5092379;28;20040;-71
2023/11/21 03:25:05;;;;;;;5.05;4.22;;;10.70;99.90;;;;;;5093498;28;20089;-71
2023/11/21 03:27:32;;;;;;;6.22;3.72;;;10.70;99.90;;;;;;5093354;28;20044;-72
2023/11/21 03:29:59;;;;;;;4.45;3.67;;;10.70;99.90;;;;;;5092982;28;20106;-71
2023/11/21 03:32:26;;;;;;;4.70;3.40;;;10.70;99.90;;;;;;5093751;28;20051;-71
2023/11/21 03:34:53;;;;;;;4.93;3.47;;;10.70;99.90;;;;;;5093530;28;20378;-71
2023/11/21 03:37:20;;;;;;;4.38;3.90;;;10.80;99.90;;;;;;5091980;28;20397;-72
2023/11/21 03:39:47;;;;;;;4.03;3.63;;;10.80;99.90;;;;;;5093212;28;20079;-71
2023/11/21 03:42:14;;;;;;;5.70;3.08;;;10.70;99.90;;;;;;5093148;28;20047;-71
2023/11/21 03:44:41;;;;;;;4.20;3.35;;;10.70;99.90;;;;;;5091926;28;20373;-71
2023/11/21 03:47:08;;;;;;;5.43;2.88;;;10.70;99.90;;;;;;5093178;28;20044;-72
2023/11/21 03:49:35;;;;;;;3.72;2.72;;;10.60;99.90;;;;;;5093628;28;20063;-71
2023/11/21 03:52:02;;;;;;;3.55;3.00;;;10.60;99.90;;;;;;5093197;28;20105;-72
2023/11/21 03:54:31;;;;;;;5.00;2.92;;;10.60;99.90;;;;;;5093422;28;20119;-72
2023/11/21 03:56:58;;;;;;;3.65;2.70;;;10.60;99.90;;;;;;5092902;28;20028;-72
2023/11/21 03:59:25;;;;;;;2.70;2.30;;;10.60;99.90;;;;;;5093066;28;20040;-71
2023/11/21 04:01:52;;;;;;;3.40;2.50;;;10.60;99.90;;;;;;5093467;28;20054;-71
2023/11/21 04:04:19;;;;;;;4.57;2.60;;;10.70;99.90;;;;;;5093400;28;20047;-71
2023/11/21 04:06:46;;;;;;;4.82;1.98;;;10.70;99.90;;;;;;5093362;28;20102;-72
2023/11/21 04:09:13;;;;;;;2.30;1.63;;;10.60;99.90;;;;;;5093252;28;20062;-71
2023/11/21 04:11:40;;;;;;;2.47;1.48;;;10.60;99.90;;;;;;5093271;28;20036;-72
2023/11/21 04:14:07;;;;;;;2.47;1.33;;;10.60;99.90;;;;;;5093278;28;20040;-71
2023/11/21 04:16:33;;;;;;;2.28;1.35;;;10.60;99.90;;;;;;5093101;28;20028;-71
2023/11/21 04:19:01;;;;;;;2.38;1.45;;;10.60;99.90;;;;;;5093283;28;20113;-72
2023/11/21 04:21:28;;;;;;;4.00;1.80;;;10.60;99.90;;;;;;5093006;28;20453;-72
2023/11/21 04:23:54;;;;;;;2.10;1.50;;;10.60;99.90;;;;;;5092607;28;20060;-71
2023/11/21 04:26:22;;;;;;;2.42;1.50;;;10.50;99.90;;;;;;5093392;28;20050;-72
2023/11/21 04:28:48;;;;;;;2.10;1.35;;;10.50;99.90;;;;;;5092964;28;20047;-71
2023/11/21 04:31:15;;;;;;;3.15;1.70;;;10.50;99.90;;;;;;5093000;28;20488;-72
2023/11/21 04:33:42;;;;;;;2.22;1.42;;;10.60;99.90;;;;;;5096461;28;20059;-71
2023/11/21 04:36:10;;;;;;;2.95;1.55;;;10.60;99.90;;;;;;5095384;28;20385;-72
2023/11/21 04:38:37;;;;;;;2.08;1.10;;;10.60;99.90;;;;;;5096793;28;20042;-72
2023/11/21 04:41:04;;;;;;;2.17;1.27;;;10.60;99.90;;;;;;5096938;28;20043;-71
2023/11/21 04:43:30;;;;;;;3.75;1.58;;;10.60;99.90;;;;;;5096646;28;20127;-71
2023/11/21 04:45:57;;;;;;;2.75;1.40;;;10.60;99.90;;;;;;5096788;28;20524;-72
2023/11/21 04:48:25;;;;;;;3.33;1.30;;;10.60;99.90;;;;;;5096014;28;20547;-71
2023/11/21 04:50:51;;;;;;;2.08;1.20;;;10.60;99.90;;;;;;5096282;28;20048;-71
2023/11/21 04:53:18;;;;;;;3.58;1.30;;;10.60;99.90;;;;;;5096381;28;20040;-72
2023/11/21 04:55:45;;;;;;;2.40;1.13;;;10.60;99.90;;;;;;5096554;28;20377;-71
2023/11/21 04:58:12;;;;;;;3.15;1.30;;;10.50;99.90;;;;;;5095703;28;20535;-72
2023/11/21 05:00:39;;;;;;;2.65;1.20;;;10.50;99.90;;;;;;5095897;28;20505;-72
2023/11/21 05:03:06;;;;;;;1.88;1.10;;;10.50;99.90;;;;;;5095802;28;20086;-71
2023/11/21 05:05:34;;;;;;;2.60;1.27;;;10.40;99.90;;;;;;5096322;28;20089;-72
2023/11/21 05:08:01;;;;;;;3.20;1.10;;;10.40;99.90;;;;;;5095855;28;20047;-72
2023/11/21 05:10:29;;;;;;;2.92;1.00;;;10.40;99.90;;;;;;5095631;28;20046;-72
2023/11/21 05:12:56;;;;;;;2.20;1.05;;;10.40;99.90;;;;;;5095949;28;20032;-71
2023/11/21 05:15:23;;;;;;;3.55;0.90;;;10.30;99.90;;;;;;5096148;28;20497;-73
2023/11/21 05:17:52;;;;;;;2.40;0.98;;;10.30;99.90;;;;;;5095891;28;20040;-73
2023/11/21 05:20:23;;;;;;;2.72;1.30;;;10.30;99.90;;;;;;5095873;28;20038;-73
2023/11/21 05:22:50;;;;;;;2.28;1.13;;;10.30;99.90;;;;;;5095888;28;20377;-72
2023/11/21 05:25:18;;;;;;;2.22;1.10;;;10.20;99.90;;;;;;5095632;28;20044;-72
2023/11/21 05:27:45;;;;;;;2.00;1.02;;;10.20;99.90;;;;;;5095858;28;20500;-73
2023/11/21 05:30:12;;;;;;;3.05;1.20;;;10.20;99.90;;;;;;5094171;28;20040;-73
2023/11/21 05:32:39;;;;;;;2.70;1.30;;;10.20;99.90;;;;;;5095333;28;20477;-73
2023/11/21 05:35:12;;;;;;;2.72;1.67;;;10.10;99.90;;;;;;5095273;28;20500;-73
2023/11/21 05:37:39;;;;;;;3.83;1.30;;;10.00;99.90;;;;;;5095326;28;20059;-73
2023/11/21 05:40:06;;;;;;;3.85;1.67;;;10.00;99.90;;;;;;5094303;28;20047;-72
2023/11/21 05:42:33;;;;;;;2.83;1.52;;;9.90;99.90;;;;;;5095533;28;20115;-73
2023/11/21 05:45:09;;;;;;;3.80;2.00;;;9.90;99.90;;;;;;5095378;28;20131;-74
2023/11/21 05:47:36;;;;;;;3.38;1.63;;;9.90;99.90;;;;;;5094177;28;20043;-73
2023/11/21 05:50:03;;;;;;;3.65;1.90;;;9.90;99.90;;;;;;5095410;28;20503;-74
2023/11/21 05:52:30;;;;;;;2.50;1.80;;;9.90;99.90;;;;;;5094993;28;20039;-73
2023/11/21 05:54:56;;;;;;;2.65;1.60;;;9.90;99.90;;;;;;5094995;28;20063;-73
2023/11/21 05:57:23;;;;;;;2.42;1.83;;;9.90;99.90;;;;;;5095046;28;20181;-73
2023/11/21 05:59:51;;;;;;;3.08;2.17;;;10.00;99.90;;;;;;5094801;28;20032;-73
2023/11/21 06:02:19;;;;;;;2.30;1.92;;;9.90;99.90;;;;;;5094648;28;20047;-73
2023/11/21 06:04:45;;;;;;;3.65;2.10;;;10.00;99.90;;;;;;5095069;28;20040;-73
2023/11/21 06:07:13;;;;;;;2.47;1.63;;;10.00;99.90;;;;;;5094923;28;20044;-73
2023/11/21 06:09:40;;;;;;;3.33;2.28;;;9.90;99.90;;;;;;5094808;28;20380;-73
2023/11/21 06:12:06;;;;;;;3.25;2.60;;;9.90;99.90;;;;;;5094742;28;20036;-73
2023/11/21 06:14:35;;;;;;;5.65;2.13;;;9.90;99.90;;;;;;5094771;28;20133;-73
2023/11/21 06:17:02;;;;;;;3.90;1.88;;;9.90;99.90;;;;;;5094716;28;20040;-73
2023/11/21 06:19:29;;;;;;;3.33;2.10;;;9.90;99.90;;;;;;5094832;28;20047;-73
2023/11/21 06:21:56;;;;;;;3.42;1.90;;;9.90;99.90;;;;;;5094865;28;20097;-73
2023/11/21 06:24:22;;;;;;;3.55;2.10;;;9.90;99.90;;;;;;5093356;28;20127;-73
2023/11/21 06:26:49;;;;;;;4.20;2.08;;;9.90;99.90;;;;;;5093275;28;20044;-73
2023/11/21 06:29:16;;;;;;;3.40;2.03;;;9.90;99.90;;;;;;5093050;28;20486;-73
2023/11/21 06:31:43;;;;;;;6.47;2.30;;;9.90;99.90;;;;;;5094851;28;20052;-73
2023/11/21 06:34:10;;;;;;;7.00;2.40;;;9.90;99.90;;;;;;5095442;28;20032;-73
2023/11/21 06:36:37;;;;;;;3.35;1.60;;;10.00;99.90;;;;;;5096155;28;20048;-73
2023/11/21 06:39:08;;;;;;;3.88;1.58;;;9.90;99.90;;;;;;5100350;28;20035;-73
2023/11/21 06:41:38;;;;;;;5.38;1.80;;;9.90;99.90;;;;;;5099505;28;20059;-73
2023/11/21 06:44:05;;;;;;;3.35;1.70;;;9.90;99.90;;;;;;5097111;28;20054;-73
2023/11/21 06:46:33;;;;;;;2.90;1.20;;;9.90;99.90;;;;;;5094485;28;20464;-73
2023/11/21 06:49:00;;;;;;;3.90;1.30;;;9.90;99.90;;;;;;5094161;28;20040;-74
2023/11/21 06:51:27;;;;;;;3.72;1.40;;;9.90;99.90;;;;;;5093990;28;20036;-73
2023/11/21 06:53:54;;;;;;;3.67;1.38;;;9.90;99.90;;;;;;5094344;28;20032;-74
2023/11/21 06:56:21;;;;;;;5.45;1.40;;;9.90;99.90;;;;;;5093310;28;20439;-74
2023/11/21 06:58:48;;;;;;;2.45;1.25;;;9.90;99.90;;;;;;5093997;28;20094;-74
2023/11/21 07:01:15;;;;;;;4.25;1.23;;;9.90;99.90;;;;;;5094283;28;20044;-73
2023/11/21 07:03:42;;;;;;;3.40;1.50;;;9.80;99.90;;;;;;5094356;28;20122;-73
2023/11/21 07:06:09;;;;;;;3.33;1.10;;;9.80;99.90;;;;;;5094715;28;20040;-73
2023/11/21 07:08:36;;;;;;;3.33;1.17;;;9.80;99.90;;;;;;5093340;28;20495;-72
2023/11/21 07:11:03;;;;;;;3.75;1.10;;;9.70;99.90;;;;;;5094708;28;20060;-73
2023/11/21 07:13:30;;;;;;;3.17;1.15;;;9.60;99.90;;;;;;5093762;28;20051;-73
2023/11/21 07:15:57;;;;;;;4.00;1.30;;;9.60;99.90;;;;;;5093992;28;20040;-73
2023/11/21 07:18:24;;;;;;;3.03;1.08;;;9.60;99.90;;;;;;5093452;28;20051;-73
2023/11/21 07:20:51;;;;;;;2.92;1.10;;;9.60;99.90;;;;;;5093718;28;20040;-72
2023/11/21 07:23:18;;;;;;;2.75;0.95;;;9.60;99.90;;;;;;5093759;28;20043;-73
2023/11/21 07:25:45;;;;;;;5.07;1.30;;;9.60;99.90;;;;;;5093650;28;20102;-73
2023/11/21 07:28:12;;;;;;;3.50;1.60;;;9.60;99.90;;;;;;5093075;28;20097;-73
2023/11/21 07:30:39;;;;;;;3.85;1.38;;;9.60;99.90;;;;;;5093644;28;20044;-73
2023/11/21 07:33:07;;;;;;;5.22;1.40;;;9.60;99.90;;;;;;5093221;28;20040;-72
2023/11/21 07:35:34;;;;;;;5.30;1.40;;;9.70;99.90;;;;;;5093072;28;20040;-73
2023/11/21 07:38:00;;;;;;;5.07;1.45;;;9.60;99.90;;;;;;5093384;28;20036;-73
2023/11/21 07:40:27;;;;;;;4.68;1.58;;;9.60;99.90;;;;;;5092967;28;20499;-73
2023/11/21 07:42:57;;;;;;;4.50;1.38;;;9.50;99.90;;;;;;5093220;28;20059;-73
2023/11/21 07:45:27;;;;;;;3.28;1.20;;;9.50;99.90;;;;;;5093051;28;20051;-72
2023/11/21 07:47:54;;;;;;;2.95;1.42;;;9.50;99.90;;;;;;5093341;28;20036;-72
2023/11/21 07:50:22;;;;;;;3.70;1.50;;;9.50;99.90;;;;;;5093305;28;20075;-73
2023/11/21 07:52:49;;;;;;;3.45;1.27;;;9.50;99.90;;;;;;5093286;28;20111;-73
2023/11/21 07:55:16;;;;;;;5.13;1.85;;;9.50;99.90;;;;;;5093112;28;20551;-73
2023/11/21 07:57:43;;;;;;;4.57;1.90;;;9.40;99.90;;;;;;5093440;28;20068;-73
2023/11/21 08:00:12;;;;;;;4.40;1.85;;;9.40;99.90;;;;;;5093543;28;20503;-73
2023/11/21 08:02:39;;;;;;;5.65;1.75;;;9.40;99.90;;;;;;5092483;28;20120;-73
2023/11/21 08:05:07;;;;;;;2.40;1.67;;;9.40;99.90;;;;;;5093857;28;20048;-73
2023/11/21 08:07:41;;;;;;;4.72;2.00;;;9.40;99.90;;;;;;5095221;28;20504;-73
2023/11/21 08:10:10;;;;;;;3.80;2.30;;;9.40;99.90;;;;;;5097760;28;20487;-73
2023/11/21 08:12:38;;;;;;;4.22;2.38;;;9.40;99.90;;;;;;5097712;28;20469;-73
2023/11/21 08:15:05;;;;;;;5.00;2.58;;;9.40;99.90;;;;;;5097159;28;20042;-73
2023/11/21 08:17:32;;;;;;;4.57;2.40;;;9.40;99.90;;;;;;5097267;28;20043;-73
2023/11/21 08:19:59;;;;;;;4.38;2.55;;;9.30;99.90;;;;;;5095873;28;20032;-73
2023/11/21 08:22:27;;;;;;;5.43;2.70;;;9.40;99.90;;;;;;5097125;28;20044;-73
2023/11/21 08:24:56;;;;;;;5.43;2.70;;;9.40;99.90;;;;;;5097130;28;20051;-73
2023/11/21 08:27:23;;;;;;;4.60;2.88;;;9.40;99.90;;;;;;5095502;28;20055;-73
2023/11/21 08:29:50;;;;;;;5.38;2.55;;;9.40;99.90;;;;;;5096953;28;20036;-73
2023/11/21 08:32:17;;;;;;;4.32;2.65;;;9.40;99.90;;;;;;5095822;28;20167;-73
2023/11/21 08:34:45;;;;;;;4.35;2.40;;;9.40;99.90;;;;;;5096878;28;20097;-73
2023/11/21 08:37:13;;;;;;;5.03;2.40;;;9.40;99.90;;;;;;5096534;28;20126;-73
2023/11/21 08:39:41;;;;;;;4.10;2.40;;;9.40;99.90;;;;;;5096683;28;20485;-73
2023/11/21 08:42:08;;;;;;;6.68;2.85;;;9.40;99.90;;;;;;5097135;28;20044;-72
2023/11/21 08:44:36;;;;;;;8.05;2.35;;;9.40;99.90;;;;;;5089638;28;20042;-72
2023/11/21 08:47:04;;;;;;;4.35;2.55;;;9.50;99.90;;;;;;5096112;28;20063;-72
2023/11/21 08:49:34;;;;;;;4.35;2.45;;;9.50;99.90;;;;;;5078144;28;20401;-73
2023/11/21 08:52:01;;;;;;;7.55;2.28;;;9.50;99.90;;;;;;5080503;28;20490;-73
2023/11/21 08:54:28;;;;;;;5.28;2.88;;;9.60;99.90;;;;;;5074300;28;20045;-73
2023/11/21 08:56:55;;;;;;;4.35;2.10;;;9.60;99.90;;;;;;5075487;28;20040;-71
2023/11/21 08:59:22;;;;;;;4.78;2.15;;;9.60;99.90;;;;;;5074787;28;20106;-72
2023/11/21 09:01:49;;;;;;;3.50;1.75;;;9.50;99.90;;;;;;5075255;28;20033;-71
2023/11/21 09:04:16;;;;;;;3.55;1.90;;;9.50;99.90;;;;;;5074709;28;20390;-72
2023/11/21 09:06:42;;;;;;;5.72;2.28;;;9.50;99.90;;;;;;5075389;28;20424;-72
2023/11/21 09:09:10;;;;;;;5.03;2.10;;;9.60;99.90;;;;;;5075506;28;20036;-71
2023/11/21 09:11:36;;;;;;;3.42;1.70;;;9.50;99.90;;;;;;5086916;28;20115;-72
2023/11/21 09:14:03;;;;;;;2.47;1.48;;;9.50;99.90;;;;;;5094523;28;20128;-72
2023/11/21 09:16:31;;;;;;;3.38;1.77;;;9.50;99.90;;;;;;5083234;28;20053;-72
2023/11/21 09:18:59;;;;;;;2.95;1.77;;;9.50;99.90;;;;;;5092652;28;20040;-72
2023/11/21 09:21:28;;;;;;;4.38;2.00;;;9.50;99.90;;;;;;5082473;28;20044;-72
2023/11/21 09:23:55;;;;;;;7.10;2.05;;;9.50;99.90;;;;;;5075028;28;20040;-71
2023/11/21 09:26:22;;;;;;;3.35;1.50;;;9.40;99.90;;;;;;5074754;28;20067;-72
2023/11/21 09:28:49;;;;;;;5.50;1.90;;;9.50;99.90;;;;;;5074816;28;20045;-72
2023/11/21 09:31:16;;;;;;;4.32;1.80;;;9.40;99.90;;;;;;5075058;28;20052;-72
2023/11/21 09:33:43;;;;;;;3.97;1.80;;;9.50;99.90;;;;;;5074416;28;20036;-72
2023/11/21 09:36:09;;;;;;;5.05;1.83;;;9.50;99.90;;;;;;5074524;28;20056;-72
2023/11/21 09:38:37;;;;;;;3.38;1.52;;;9.50;99.90;;;;;;5075065;28;20045;-72
2023/11/21 09:41:04;;;;;;;5.45;1.50;;;9.70;99.90;;;;;;5075157;28;20481;-71
2023/11/21 09:43:31;;;;;;;2.50;1.25;;;9.70;99.90;;;;;;5073297;28;20089;-72
2023/11/21 09:45:58;;;;;;;3.33;1.60;;;9.70;99.90;;;;;;5074670;28;20461;-72
2023/11/21 09:48:25;;;;;;;4.97;1.52;;;9.70;99.90;;;;;;5074367;28;20044;-72
2023/11/21 09:50:51;;;;;;;3.70;1.40;;;9.80;99.90;;;;;;5074550;28;20063;-72
2023/11/21 09:53:20;;;;;;;3.55;1.30;;;9.80;99.90;;;;;;5074576;28;20037;-72
2023/11/21 09:55:48;;;;;;;2.47;1.40;;;9.80;99.90;;;;;;5076726;28;20115;-72
2023/11/21 09:58:15;;;;;;;4.75;1.30;;;9.90;99.90;;;;;;5074226;28;20041;-72
2023/11/21 10:00:42;;;;;;;3.72;1.38;;;9.90;99.90;;;;;;5074489;28;20115;-72
2023/11/21 10:03:09;;;;;;;3.40;1.50;;;10.00;99.90;;;;;;5078189;28;20044;-72
2023/11/21 10:05:36;;;;;;;3.00;1.27;;;10.00;99.90;;;;;;5091034;28;20098;-72
2023/11/21 10:08:02;;;;;;;9.23;1.50;;;10.00;99.90;;;;;;5073977;28;20036;-72
2023/11/21 10:10:29;;;;;;;3.28;1.20;;;10.10;99.90;;;;;;5074211;28;20059;-72
2023/11/21 10:12:56;;;;;;;2.60;1.30;;;10.00;99.90;;;;;;5074168;28;20037;-71
2023/11/21 10:15:25;;;;;;;4.50;1.38;;;10.00;99.90;;;;;;5073768;28;20453;-72
2023/11/21 10:17:53;;;;;;;4.93;1.30;;;10.00;99.90;;;;;;5073661;28;20033;-72
2023/11/21 10:20:19;;;;;;;2.47;1.13;;;10.00;99.90;;;;;;5073949;28;20036;-72
2023/11/21 10:22:46;;;;;;;2.22;1.10;;;10.00;99.90;;;;;;5076213;28;20037;-71
2023/11/21 10:25:18;;;;;;;4.95;1.40;;;10.00;99.90;;;;;;5073637;28;20111;-72
2023/11/21 10:27:44;;;;;;;3.38;1.50;;;10.10;99.90;;;;;;5072619;28;20044;-70
2023/11/21 10:30:12;;;;;;;3.63;1.55;;;10.10;99.90;;;;;;5090457;28;20400;-72
2023/11/21 10:32:40;;;;;;;3.25;1.40;;;10.10;99.90;;;;;;5093039;28;20040;-72
2023/11/21 10:35:10;;;;;;;4.28;1.38;;;10.20;99.90;;;;;;5093531;28;20474;-71
2023/11/21 10:37:39;;;;;;;2.35;1.23;;;10.20;99.90;;;;;;5091932;28;20405;-71
2023/11/21 10:40:06;;;;;;;2.53;1.00;;;10.20;99.90;;;;;;5093558;28;20059;-71
2023/11/21 10:42:33;;;;;;;2.38;0.82;;;10.20;99.90;;;;;;5093571;28;20114;-71
2023/11/21 10:45:00;;;;;;;2.92;1.15;;;10.30;99.90;;;;;;5093305;28;20130;-72
2023/11/21 10:47:28;;;;;;;2.10;1.00;;;10.30;99.90;;;;;;5093220;28;20504;-71
2023/11/21 10:49:55;;;;;;;3.40;1.05;;;10.30;99.90;;;;;;5091986;28;20135;-70
2023/11/21 10:52:22;;;;;;;2.17;1.00;;;10.20;99.90;;;;;;5082048;28;20044;-74
2023/11/21 10:54:49;;;;;;;2.17;0.90;;;10.20;99.90;;;;;;5078245;28;20111;-74
2023/11/21 10:57:16;;;;;;;3.08;1.30;;;10.30;99.90;;;;;;5091862;28;20044;-74
2023/11/21 10:59:42;;;;;;;2.42;1.05;;;10.30;99.90;;;;;;5091569;28;20040;-74
2023/11/21 11:02:09;;;;;;;3.28;1.13;;;10.30;99.90;;;;;;5088358;28;20043;-74
2023/11/21 11:04:37;;;;;;;3.42;1.38;;;10.40;99.90;;;;;;5093218;28;20036;-74
2023/11/21 11:07:05;;;;;;;2.38;1.10;;;10.50;99.90;;;;;;5090819;28;20089;-74
2023/11/21 11:09:35;;;;;;;1.98;0.95;;;10.40;99.90;;;;;;5092829;28;20558;-75
2023/11/21 11:12:02;;;;;;;2.85;1.17;;;10.40;99.90;;;;;;5080435;28;20068;-74
2023/11/21 11:14:29;;;;;;;2.88;1.10;;;10.40;99.90;;;;;;5073302;28;20083;-74
2023/11/21 11:16:56;;;;;;;1.63;1.00;;;10.40;99.90;;;;;;5077430;28;20047;-74
2023/11/21 11:19:23;;;;;;;2.28;1.00;;;10.40;99.90;;;;;;5092715;28;20042;-74
2023/11/21 11:21:50;;;;;;;3.35;1.23;;;10.40;99.90;;;;;;5091874;28;20044;-74
2023/11/21 11:24:17;;;;;;;2.22;0.82;;;10.40;99.90;;;;;;5092550;28;20044;-74
2023/11/21 11:26:44;;;;;;;3.00;1.00;;;10.50;99.90;;;;;;5092635;28;20496;-74
2023/11/21 11:29:11;;;;;;;2.00;1.00;;;10.50;99.90;;;;;;5073531;28;20052;-74
2023/11/21 11:31:38;;;;;;;3.70;1.20;;;10.60;99.90;;;;;;5073337;28;20040;-74
2023/11/21 11:34:05;;;;;;;3.35;1.30;;;10.60;99.90;;;;;;5071589;28;20067;-74
2023/11/21 11:36:32;;;;;;;2.88;1.38;;;10.60;99.90;;;;;;5073267;28;20044;-74
2023/11/21 11:39:01;;;;;;;2.97;1.55;;;10.60;99.90;;;;;;5075623;28;20131;-74
2023/11/21 11:41:29;;;;;;;1.60;1.00;;;10.60;99.90;;;;;;5095488;28;20066;-74
2023/11/21 11:43:56;;;;;;;2.20;1.20;;;10.70;99.90;;;;;;5098520;28;20046;-73
2023/11/21 11:46:23;;;;;;;4.18;1.20;;;10.70;99.90;;;;;;5089446;28;20102;-73
2023/11/21 11:48:50;;;;;;;2.55;1.20;;;10.70;99.90;;;;;;5079741;28;20037;-71
2023/11/21 11:51:18;;;;;;;2.45;1.20;;;10.70;99.90;;;;;;5095282;28;20558;-73
2023/11/21 11:53:45;;;;;;;2.70;1.00;;;10.70;99.90;;;;;;5099100;28;20046;-73
2023/11/21 11:56:12;;;;;;;3.45;1.20;;;10.70;99.90;;;;;;5097602;28;20032;-72
2023/11/21 11:58:39;;;;;;;2.00;1.02;;;10.70;99.90;;;;;;5099052;28;20048;-72
2023/11/21 12:01:06;;;;;;;2.28;1.02;;;10.70;99.90;;;;;;5098475;28;20040;-72
2023/11/21 12:03:36;;;;;;;2.15;1.00;;;10.70;99.90;;;;;;5099249;28;20488;-70
2023/11/21 12:06:05;;;;;;;2.72;1.20;;;10.70;99.90;;;;;;5098513;28;20040;-70
2023/11/21 12:08:34;;;;;;;3.15;1.08;;;10.70;99.90;;;;;;5097717;28;20060;-71
2023/11/21 12:11:01;;;;;;;4.32;1.08;;;10.70;99.90;;;;;;5099035;28;20036;-73
2023/11/21 12:13:27;;;;;;;2.25;1.10;;;10.70;99.90;;;;;;5097444;28;20036;-73
2023/11/21 12:15:54;;;;;;;3.65;1.15;;;10.70;99.90;;;;;;5098639;28;20043;-73
2023/11/21 12:18:21;;;;;;;3.83;1.20;;;10.70;99.90;;;;;;5097550;28;20067;-73
2023/11/21 12:20:50;;;;;;;1.92;1.20;;;10.80;99.90;;;;;;5091867;28;20443;-73
2023/11/21 12:23:17;;;;;;;3.58;1.30;;;10.80;99.90;;;;;;5091910;28;20489;-72
2023/11/21 12:25:44;;;;;;;2.70;1.40;;;10.90;99.90;;;;;;5090526;28;20044;-72
2023/11/21 12:28:11;;;;;;;2.30;1.38;;;10.90;99.90;;;;;;5078940;28;20037;-72
2023/11/21 12:30:39;;;;;;;2.25;1.50;;;10.90;99.90;;;;;;5088396;28;20052;-72
2023/11/21 12:33:08;;;;;;;2.80;1.40;;;10.90;99.90;;;;;;5098403;28;20067;-69
2023/11/21 12:35:36;;;;;;;2.63;2.00;;;10.90;99.90;;;;;;5097772;28;20048;-70
2023/11/21 12:38:03;;;;;;;2.40;1.50;;;10.90;99.90;;;;;;5095341;28;20051;-69
2023/11/21 12:40:30;;;;;;;3.45;1.83;;;11.00;99.90;;;;;;5081594;28;20536;-69
2023/11/21 12:42:57;;;;;;;2.10;1.50;;;11.00;99.90;;;;;;5077479;28;20044;-69
2023/11/21 12:45:27;;;;;;;3.05;1.70;;;11.00;99.90;;;;;;5087815;28;20044;-70
2023/11/21 12:47:56;;;;;;;3.35;1.90;;;11.00;99.90;;;;;;5078952;28;20059;-69
2023/11/21 12:50:23;;;;;;;1.90;1.60;;;11.00;99.90;;;;;;5078824;28;20575;-69